Time,TemperatureF,DewpointF,PressureIn,WindDirection,WindDirectionDegrees,WindSpeedMPH,WindSpeedGustMPH,Humidity,HourlyPrecipIn,Conditions,Clouds,dailyrainin,SoftwareType,DateUTC
2014-02-02 00:56:00,37.6,29.2,29.47,ESE,102,1.1,1.1,71,0.00,,,0.00,VWS V14.01,2014-02-02 05:56:00,
2014-02-02 01:56:00,37.0,30.0,29.44,ESE,102,4.3,4.3,75,0.00,,,0.00,VWS V14.01,2014-02-02 06:56:00,
2014-02-02 02:56:00,36.3,29.6,29.44,ESE,102,1.1,1.1,76,0.00,,,0.00,VWS V14.01,2014-02-02 07:56:00,
2014-02-02 03:56:00,34.7,30.2,29.47,ESE,102,1.6,1.6,83,0.00,,,0.00,VWS V14.01,2014-02-02 08:56:00,
2014-02-02 04:56:00,36.3,31.8,29.50,WNW,282,7.6,7.6,83,0.00,,,0.00,VWS V14.01,2014-02-02 09:56:00,
2014-02-02 05:56:00,34.5,34.1,29.50,WNW,282,7.8,8.5,98,0.00,,,0.00,VWS V14.01,2014-02-02 10:56:00,
2014-02-02 06:56:00,34.5,34.1,29.50,WNW,282,7.2,7.4,98,0.00,,,0.00,VWS V14.01,2014-02-02 11:56:00,
2014-02-02 07:56:00,34.0,33.6,29.56,WNW,282,6.0,6.5,98,0.00,,,0.00,VWS V14.01,2014-02-02 12:56:00,
2014-02-02 08:56:00,34.3,33.9,29.56,WNW,282,10.1,10.1,98,0.00,,,0.00,VWS V14.01,2014-02-02 13:56:00,
2014-02-02 09:56:00,34.2,33.8,29.56,WNW,282,7.4,7.4,98,0.00,,,0.00,VWS V14.01,2014-02-02 14:56:00,
2014-02-02 10:56:00,34.5,33.3,29.59,WNW,282,9.0,9.0,95,0.00,,,0.00,VWS V14.01,2014-02-02 15:56:00,
2014-02-02 11:56:00,34.3,32.1,29.59,WNW,282,10.7,10.7,91,0.00,,,0.00,VWS V14.01,2014-02-02 16:56:00,
2014-02-02 12:56:00,33.6,31.7,29.59,WNW,282,13.6,13.6,92,0.00,,,0.00,VWS V14.01,2014-02-02 17:56:00,
2014-02-02 13:56:00,32.7,30.0,29.59,WNW,282,13.0,13.2,89,0.00,,,0.00,VWS V14.01,2014-02-02 18:56:00,
2014-02-02 14:56:00,32.4,29.0,29.62,NW,305,14.5,14.5,87,0.00,,,0.00,VWS V14.01,2014-02-02 19:56:00,
2014-02-02 15:56:00,32.0,27.8,29.62,WNW,282,12.5,13.2,84,0.00,,,0.00,VWS V14.01,2014-02-02 20:56:00,
2014-02-02 16:56:00,31.3,26.5,29.68,WNW,282,12.3,13.2,82,0.00,,,0.00,VWS V14.01,2014-02-02 21:56:00,
2014-02-02 17:56:00,31.1,25.8,29.71,WNW,282,12.3,12.3,80,0.00,,,0.00,VWS V14.01,2014-02-02 22:56:00,
2014-02-02 18:56:00,30.7,25.4,29.74,WNW,282,12.3,12.3,80,0.00,,,0.00,VWS V14.01,2014-02-02 23:56:00,
2014-02-02 19:56:00,30.0,25.6,29.74,WNW,282,16.8,16.8,83,0.00,,,0.00,VWS V14.01,2014-02-03 00:56:00,
2014-02-02 20:56:00,29.1,23.2,29.76,NW,305,11.0,12.8,78,0.00,,,0.00,VWS V14.01,2014-02-03 01:56:00,
2014-02-02 21:56:00,28.8,22.3,29.79,NW,305,8.1,8.1,76,0.00,,,0.00,VWS V14.01,2014-02-03 02:56:00,
2014-02-02 22:56:00,28.8,22.6,29.79,WNW,282,5.6,6.5,77,0.00,,,0.00,VWS V14.01,2014-02-03 03:56:00,
2014-02-02 23:56:00,28.4,21.6,29.76,WNW,282,8.7,10.1,75,0.00,,,0.00,VWS V14.01,2014-02-03 04:56:00,